| time (UTC) | temp C | wind direction | speed KPH | gust KPH | rain 1hr cm | rain 24hr cm | rain mn cm | humidity % | barometer mb |
| 20260506161046 | 12 | 30 | 1.6 | 6.4 | 0.18 | 0.28 | 0.28 | 91 | 1015.1 |
| 20260506160543 | 11 | 319 | 1.6 | 14.5 | 0.23 | 0.28 | 0.28 | 91 | 1014.5 |
| 20260506160049 | 11 | 13 | 3.2 | 14.5 | 0.28 | 0.28 | 0.28 | 90 | 1013.9 |
| 20260506155543 | 11 | 339 | 3.2 | 14.5 | 0.28 | 0.28 | 0.28 | 91 | 1013.7 |
| 20260506155044 | 11 | 355 | 6.4 | 12.9 | 0.28 | 0.28 | 0.28 | 90 | 1013.6 |
| 20260506154551 | 11 | 5 | 3.2 | 12.9 | 0.28 | 0.28 | 0.28 | 91 | 1014.2 |
| 20260506154044 | 11 | 44 | 1.6 | 8.0 | 0.28 | 0.28 | 0.28 | 91 | 1014.1 |
| 20260506153544 | 11 | 36 | 1.6 | 11.3 | 0.28 | 0.28 | 0.28 | 90 | 1014.3 |
| 20260506153051 | 11 | 46 | 4.8 | 11.3 | 0.28 | 0.28 | 0.28 | 90 | 1014.5 |
| 20260506152543 | 11 | 293 | 1.6 | 9.7 | 0.28 | 0.28 | 0.28 | 89 | 1014.9 |
| 20260506152044 | 11 | 5 | 3.2 | 8.0 | 0.25 | 0.25 | 0.25 | 88 | 1014.4 |
| 20260506151551 | 11 | 0 | 1.6 | 6.4 | 0.18 | 0.18 | 0.18 | 87 | 1015.8 |
| 20260506151043 | 11 | 264 | 0.0 | 8.0 | 0.08 | 0.08 | 0.08 | 85 | 1016.6 |
| 20260506150547 | 11 | 305 | 3.2 | 8.0 | 0.05 | 0.05 | 0.05 | 84 | 1016.4 |
| 20260506145548 | 12 | 318 | 1.6 | 9.7 | 0.00 | 0.00 | 0.00 | 83 | 1015.6 |
| 20260506145051 | 12 | 26 | 1.6 | 9.7 | 0.00 | 0.00 | 0.00 | 83 | 1015.4 |
| 20260506144609 | 11 | 16 | 3.2 | 14.5 | 0.00 | 0.00 | 0.00 | 83 | 1015.3 |
| 20260506144048 | 12 | 16 | 3.2 | 14.5 | 0.00 | 0.00 | 0.00 | 83 | 1015.0 |
| 20260506143548 | 12 | 22 | 3.2 | 12.9 | 0.00 | 0.00 | 0.00 | 84 | 1014.3 |
| 20260506143054 | 11 | 19 | 3.2 | 12.9 | 0.00 | 0.00 | 0.00 | 83 | 1013.9 |
| 20260506142550 | 11 | 30 | 3.2 | 12.9 | 0.00 | 0.00 | 0.00 | 82 | 1013.8 |
| 20260506142047 | 11 | 37 | 3.2 | 12.9 | 0.00 | 0.00 | 0.00 | 82 | 1015.0 |
| 20260506141553 | 11 | 360 | 3.2 | 12.9 | 0.00 | 0.00 | 0.00 | 82 | 1015.1 |
| 20260506141051 | 12 | 28 | 3.2 | 12.9 | 0.00 | 0.00 | 0.00 | 82 | 1015.1 |
| 20260506140548 | 12 | 318 | 1.6 | 12.9 | 0.00 | 0.00 | 0.00 | 82 | 1014.9 |
| 20260506140104 | 12 | 26 | 1.6 | 12.9 | 0.00 | 0.00 | 0.00 | 83 | 1014.5 |
| 20260506135548 | 11 | 11 | 1.6 | 12.9 | 0.00 | 0.00 | 0.00 | 83 | 1014.4 |
| 20260506135048 | 11 | 355 | 1.6 | 8.0 | 0.00 | 0.00 | 0.00 | 83 | 1014.2 |
| 20260506134553 | 11 | 24 | 1.6 | 14.5 | 0.00 | 0.00 | 0.00 | 83 | 1014.2 |
| 20260506134047 | 11 | 20 | 3.2 | 14.5 | 0.00 | 0.00 | 0.00 | 83 | 1014.2 |
| 20260506133547 | 11 | 21 | 3.2 | 9.7 | 0.00 | 0.00 | 0.00 | 83 | 1013.9 |
| 20260506133102 | 11 | 84 | 3.2 | 12.9 | 0.00 | 0.00 | 0.00 | 82 | 1013.7 |
| 20260506132549 | 11 | 16 | 1.6 | 12.9 | 0.00 | 0.00 | 0.00 | 82 | 1013.7 |
| 20260506132048 | 11 | 28 | 3.2 | 12.9 | 0.00 | 0.00 | 0.00 | 82 | 1013.8 |
| 20260506131552 | 11 | 24 | 3.2 | 9.7 | 0.00 | 0.00 | 0.00 | 82 | 1013.7 |
| 20260506131051 | 11 | 13 | 1.6 | 9.7 | 0.00 | 0.00 | 0.00 | 82 | 1013.6 |
| 20260506130547 | 11 | 32 | 0.0 | 4.8 | 0.00 | 0.00 | 0.00 | 83 | 1013.4 |
| 20260506130133 | 11 | 290 | 0.0 | 8.0 | 0.00 | 0.00 | 0.00 | 82 | 1013.4 |
| 20260506125548 | 11 | 36 | 1.6 | 8.0 | 0.00 | 0.00 | 0.00 | 82 | 1013.4 |
| 20260506125048 | 11 | 10 | 3.2 | 8.0 | 0.00 | 0.00 | 0.00 | 82 | 1013.1 |
| 20260506124552 | 11 | 0 | 3.2 | 14.5 | 0.00 | 0.00 | 0.00 | 81 | 1013.3 |
| 20260506124048 | 11 | 15 | 3.2 | 14.5 | 0.00 | 0.00 | 0.00 | 81 | 1013.2 |
| 20260506123548 | 11 | 338 | 4.8 | 14.5 | 0.00 | 0.00 | 0.00 | 81 | 1013.2 |
| 20260506123052 | 11 | 22 | 4.8 | 12.9 | 0.00 | 0.00 | 0.00 | 80 | 1013.0 |
| 20260506122547 | 11 | 330 | 3.2 | 12.9 | 0.00 | 0.00 | 0.00 | 80 | 1013.1 |
| 20260506122046 | 12 | 10 | 3.2 | 12.9 | 0.00 | 0.00 | 0.00 | 79 | 1013.0 |
| 20260506121555 | 12 | 331 | 3.2 | 8.0 | 0.00 | 0.00 | 0.00 | 79 | 1013.0 |
| 20260506121048 | 12 | 306 | 1.6 | 12.9 | 0.00 | 0.00 | 0.00 | 78 | 1013.0 |
| 20260506120547 | 12 | 342 | 3.2 | 12.9 | 0.00 | 0.00 | 0.00 | 78 | 1013.0 |
| 20260506120055 | 12 | 5 | 3.2 | 11.3 | 0.00 | 0.00 | 0.00 | 77 | 1012.7 |
| 20260506115547 | 12 | 51 | 3.2 | 12.9 | 0.00 | 0.00 | 0.00 | 76 | 1012.8 |
| 20260506115048 | 12 | 302 | 1.6 | 14.5 | 0.00 | 0.00 | 0.00 | 77 | 1012.7 |
| 20260506114550 | 12 | 28 | 3.2 | 14.5 | 0.00 | 0.00 | 0.00 | 76 | 1012.5 |
| 20260506114048 | 12 | 22 | 1.6 | 12.9 | 0.00 | 0.00 | 0.00 | 76 | 1012.4 |
| 20260506113548 | 12 | 22 | 3.2 | 12.9 | 0.00 | 0.00 | 0.00 | 76 | 1012.3 |
| 20260506113054 | 12 | 355 | 3.2 | 8.0 | 0.00 | 0.00 | 0.00 | 76 | 1012.3 |
| 20260506112547 | 12 | 30 | 1.6 | 11.3 | 0.00 | 0.00 | 0.00 | 76 | 1012.3 |
| 20260506112047 | 12 | 318 | 1.6 | 11.3 | 0.00 | 0.00 | 0.00 | 75 | 1012.1 |
| 20260506111553 | 12 | 263 | 3.2 | 11.3 | 0.00 | 0.00 | 0.00 | 75 | 1011.8 |
| 20260506111049 | 13 | 293 | 3.2 | 14.5 | 0.00 | 0.00 | 0.00 | 75 | 1011.9 |
| 20260506110547 | 13 | 11 | 3.2 | 14.5 | 0.00 | 0.00 | 0.00 | 75 | 1011.9 |
| 20260506110050 | 13 | 340 | 3.2 | 12.9 | 0.00 | 0.00 | 0.00 | 75 | 1011.7 |
| 20260506105549 | 13 | 316 | 3.2 | 11.3 | 0.00 | 0.00 | 0.00 | 75 | 1011.6 |
| 20260506105047 | 13 | 355 | 1.6 | 9.7 | 0.00 | 0.00 | 0.00 | 75 | 1011.6 |
| 20260506104603 | 13 | 30 | 3.2 | 11.3 | 0.00 | 0.00 | 0.00 | 76 | 1011.5 |
| 20260506104048 | 13 | 306 | 3.2 | 12.9 | 0.00 | 0.00 | 0.00 | 75 | 1011.5 |
| 20260506103548 | 13 | 12 | 3.2 | 12.9 | 0.00 | 0.00 | 0.00 | 75 | 1011.4 |
| 20260506103054 | 13 | 323 | 1.6 | 6.4 | 0.00 | 0.00 | 0.00 | 75 | 1011.1 |
| 20260506102548 | 13 | 23 | 3.2 | 8.0 | 0.00 | 0.00 | 0.00 | 76 | 1011.2 |
| 20260506102048 | 13 | 355 | 1.6 | 8.0 | 0.00 | 0.00 | 0.00 | 75 | 1011.1 |
| 20260506101550 | 13 | 327 | 1.6 | 8.0 | 0.00 | 0.00 | 0.00 | 75 | 1011.0 |
| 20260506101048 | 13 | 19 | 1.6 | 8.0 | 0.00 | 0.00 | 0.00 | 75 | 1010.9 |
| 20260506100548 | 13 | 13 | 3.2 | 12.9 | 0.00 | 0.00 | 0.00 | 75 | 1010.9 |
| 20260506100107 | 13 | 20 | 3.2 | 12.9 | 0.00 | 0.00 | 0.00 | 75 | 1010.9 |
| 20260506095548 | 13 | 346 | 3.2 | 8.0 | 0.00 | 0.00 | 0.00 | 75 | 1010.5 |
| 20260506095047 | 13 | 355 | 1.6 | 8.0 | 0.00 | 0.00 | 0.00 | 75 | 1010.6 |
| 20260506094600 | 13 | 18 | 1.6 | 8.0 | 0.00 | 0.00 | 0.00 | 76 | 1010.6 |
| 20260506094046 | 13 | 344 | 1.6 | 8.0 | 0.00 | 0.00 | 0.00 | 76 | 1010.7 |
| 20260506093547 | 13 | 15 | 3.2 | 11.3 | 0.00 | 0.00 | 0.00 | 75 | 1010.7 |
| 20260506093052 | 14 | 340 | 3.2 | 11.3 | 0.00 | 0.00 | 0.00 | 76 | 1010.3 |
| 20260506092547 | 14 | 291 | 3.2 | 8.0 | 0.00 | 0.00 | 0.00 | 76 | 1010.3 |
| 20260506092047 | 14 | 11 | 1.6 | 6.4 | 0.00 | 0.00 | 0.00 | 76 | 1010.4 |
| 20260506091551 | 14 | 23 | 3.2 | 6.4 | 0.00 | 0.00 | 0.00 | 77 | 1010.1 |
| 20260506091048 | 14 | 350 | 1.6 | 6.4 | 0.00 | 0.00 | 0.00 | 76 | 1010.2 |
| 20260506090548 | 14 | 0 | 0.0 | 8.0 | 0.00 | 0.00 | 0.00 | 77 | 1010.3 |
| 20260506090057 | 14 | 5 | 3.2 | 8.0 | 0.00 | 0.00 | 0.00 | 76 | 1010.1 |
| 20260506085547 | 14 | 24 | 3.2 | 9.7 | 0.00 | 0.00 | 0.00 | 76 | 1010.1 |
| 20260506085051 | 14 | 331 | 0.0 | 9.7 | 0.00 | 0.00 | 0.00 | 76 | 1010.2 |
| 20260506084554 | 14 | 339 | 3.2 | 9.7 | 0.00 | 0.00 | 0.00 | 76 | 1010.1 |
| 20260506084048 | 14 | 22 | 1.6 | 8.0 | 0.00 | 0.00 | 0.00 | 77 | 1009.9 |
| 20260506083548 | 14 | 16 | 1.6 | 8.0 | 0.00 | 0.00 | 0.00 | 77 | 1009.9 |
| 20260506083058 | 15 | 45 | 1.6 | 8.0 | 0.00 | 0.00 | 0.00 | 77 | 1009.9 |
| 20260506082547 | 15 | 355 | 1.6 | 8.0 | 0.00 | 0.00 | 0.00 | 77 | 1009.9 |
| 20260506082047 | 15 | 0 | 3.2 | 6.4 | 0.00 | 0.00 | 0.00 | 77 | 1009.9 |
| 20260506081602 | 15 | 30 | 3.2 | 6.4 | 0.00 | 0.00 | 0.00 | 77 | 1009.8 |
| 20260506081047 | 15 | 355 | 1.6 | 6.4 | 0.00 | 0.00 | 0.00 | 77 | 1009.8 |
| 20260506080547 | 15 | 360 | 3.2 | 8.0 | 0.00 | 0.00 | 0.00 | 77 | 1009.8 |
| 20260506073053 | 15 | 81 | 3.2 | 9.7 | 0.00 | 0.00 | 0.00 | 77 | 1009.2 |
| 20260506072548 | 15 | 360 | 1.6 | 9.7 | 0.00 | 0.00 | 0.00 | 77 | 1009.2 |
| 20260506072047 | 15 | 50 | 1.6 | 9.7 | 0.00 | 0.00 | 0.00 | 77 | 1009.5 |
| 20260506071548 | 15 | 24 | 3.2 | 9.7 | 0.00 | 0.00 | 0.00 | 77 | 1009.5 |
| 20260506071047 | 15 | 52 | 1.6 | 9.7 | 0.00 | 0.00 | 0.00 | 77 | 1009.3 |
| 20260506070550 | 15 | 20 | 3.2 | 12.9 | 0.00 | 0.00 | 0.00 | 77 | 1009.6 |
| 20260506062048 | 15 | 16 | 3.2 | 11.3 | 0.00 | 0.00 | 0.00 | 79 | 1009.4 |
| 20260506061553 | 16 | 33 | 1.6 | 8.0 | 0.00 | 0.00 | 0.00 | 78 | 1009.4 |
| 20260506061044 | 16 | 5 | 1.6 | 9.7 | 0.00 | 0.00 | 0.00 | 79 | 1009.5 |
| 20260506060545 | 16 | 25 | 1.6 | 9.7 | 0.00 | 0.00 | 0.00 | 79 | 1009.5 |
| 20260506051044 | 16 | 355 | 4.8 | 9.7 | 0.00 | 0.00 | 0.00 | 78 | 1009.5 |
| 20260506050544 | 16 | 344 | 3.2 | 12.9 | 0.00 | 0.00 | 0.00 | 77 | 1009.5 |
| 20260506045048 | 16 | 0 | 1.6 | 12.9 | 0.00 | 0.00 | 0.00 | 77 | 1009.3 |
| 20260506044553 | 17 | 0 | 3.2 | 12.9 | 0.00 | 0.00 | 0.00 | 77 | 1009.3 |
| 20260506044048 | 17 | 346 | 3.2 | 12.9 | 0.00 | 0.00 | 0.00 | 77 | 1009.3 |
| 20260506043548 | 17 | 40 | 3.2 | 12.9 | 0.00 | 0.00 | 0.00 | 77 | 1009.4 |
| 20260506043049 | 17 | 9 | 3.2 | 9.7 | 0.00 | 0.00 | 0.00 | 77 | 1009.4 |
| 20260506042548 | 17 | 30 | 3.2 | 11.3 | 0.00 | 0.00 | 0.00 | 77 | 1009.5 |
| 20260506042049 | 17 | 21 | 1.6 | 11.3 | 0.00 | 0.00 | 0.00 | 77 | 1009.4 |
| 20260506041552 | 17 | 343 | 3.2 | 12.9 | 0.00 | 0.00 | 0.00 | 77 | 1009.4 |
| 20260506041047 | 17 | 19 | 3.2 | 12.9 | 0.00 | 0.00 | 0.00 | 77 | 1009.3 |
| 20260506040550 | 17 | 26 | 3.2 | 14.5 | 0.00 | 0.00 | 0.00 | 77 | 1009.3 |
| 20260506040056 | 18 | 5 | 3.2 | 14.5 | 0.00 | 0.00 | 0.00 | 77 | 1009.5 |
| 20260506035547 | 18 | 318 | 3.2 | 12.9 | 0.00 | 0.00 | 0.00 | 76 | 1009.3 |
| 20260506035048 | 18 | 26 | 3.2 | 12.9 | 0.00 | 0.00 | 0.00 | 77 | 1008.9 |
| 20260506034610 | 18 | 10 | 4.8 | 12.9 | 0.00 | 0.00 | 0.00 | 76 | 1008.7 |
| 20260506034045 | 18 | 342 | 3.2 | 14.5 | 0.00 | 0.00 | 0.00 | 76 | 1008.7 |
| 20260506033544 | 18 | 23 | 3.2 | 14.5 | 0.00 | 0.00 | 0.00 | 76 | 1008.5 |
| 20260506033051 | 18 | 355 | 4.8 | 14.5 | 0.00 | 0.00 | 0.00 | 75 | 1008.6 |
| 20260506032544 | 18 | 22 | 3.2 | 11.3 | 0.00 | 0.00 | 0.00 | 75 | 1008.6 |
| 20260506032048 | 19 | 33 | 4.8 | 11.3 | 0.00 | 0.00 | 0.00 | 75 | 1008.5 |
| 20260506031553 | 19 | 355 | 3.2 | 12.9 | 0.00 | 0.00 | 0.00 | 74 | 1008.6 |
| 20260506031048 | 19 | 23 | 1.6 | 12.9 | 0.00 | 0.00 | 0.00 | 74 | 1008.5 |
| 20260506030547 | 20 | 315 | 3.2 | 12.9 | 0.00 | 0.00 | 0.00 | 75 | 1008.5 |
| 20260506030050 | 20 | 352 | 1.6 | 9.7 | 0.00 | 0.00 | 0.00 | 75 | 1008.5 |
| 20260506025548 | 20 | 0 | 1.6 | 9.7 | 0.00 | 0.00 | 0.00 | 74 | 1008.2 |
| 20260506025048 | 20 | 283 | 3.2 | 11.3 | 0.00 | 0.00 | 0.00 | 74 | 1008.1 |
| 20260506024555 | 20 | 355 | 1.6 | 11.3 | 0.00 | 0.00 | 0.00 | 74 | 1008.1 |
| 20260506024048 | 20 | 360 | 1.6 | 9.7 | 0.00 | 0.00 | 0.00 | 73 | 1007.9 |
| 20260506023548 | 20 | 355 | 1.6 | 12.9 | 0.00 | 0.00 | 0.00 | 73 | 1007.9 |
| 20260506023057 | 20 | 348 | 3.2 | 12.9 | 0.00 | 0.00 | 0.00 | 73 | 1007.9 |
| 20260506022547 | 20 | 332 | 1.6 | 9.7 | 0.00 | 0.00 | 0.00 | 73 | 1007.7 |
| 20260506022047 | 20 | 16 | 1.6 | 9.7 | 0.00 | 0.00 | 0.00 | 72 | 1007.4 |
| 20260506021550 | 20 | 308 | 1.6 | 12.9 | 0.00 | 0.00 | 0.00 | 72 | 1007.4 |
| 20260506021044 | 20 | 329 | 1.6 | 12.9 | 0.00 | 0.00 | 0.00 | 72 | 1007.2 |
| 20260506020548 | 20 | 349 | 1.6 | 6.4 | 0.00 | 0.00 | 0.00 | 71 | 1007.2 |
| 20260506020051 | 20 | 344 | 3.2 | 9.7 | 0.00 | 0.00 | 0.00 | 71 | 1007.1 |
| 20260506015544 | 20 | 355 | 1.6 | 11.3 | 0.00 | 0.00 | 0.00 | 71 | 1007.0 |
| 20260506015048 | 21 | 32 | 3.2 | 11.3 | 0.00 | 0.00 | 0.00 | 71 | 1006.6 |
| 20260506014554 | 21 | 355 | 1.6 | 14.5 | 0.00 | 0.00 | 0.00 | 71 | 1006.4 |
| 20260506014051 | 21 | 355 | 1.6 | 14.5 | 0.00 | 0.00 | 0.00 | 71 | 1006.5 |
| 20260506013552 | 21 | 15 | 4.8 | 14.5 | 0.00 | 0.00 | 0.00 | 70 | 1006.5 |
| 20260506013106 | 21 | 15 | 3.2 | 8.0 | 0.00 | 0.00 | 0.00 | 71 | 1006.4 |
| 20260506012548 | 21 | 11 | 1.6 | 6.4 | 0.00 | 0.00 | 0.00 | 70 | 1006.3 |
| 20260506012050 | 21 | 19 | 1.6 | 4.8 | 0.00 | 0.00 | 0.00 | 70 | 1005.9 |
| 20260506011559 | 21 | 321 | 1.6 | 6.4 | 0.00 | 0.00 | 0.00 | 70 | 1006.3 |
| 20260506011047 | 22 | 345 | 1.6 | 6.4 | 0.00 | 0.00 | 0.00 | 70 | 1006.3 |
| 20260506010548 | 22 | 319 | 3.2 | 6.4 | 0.00 | 0.00 | 0.00 | 69 | 1006.1 |
| 20260506010117 | 22 | 360 | 1.6 | 4.8 | 0.00 | 0.00 | 0.00 | 70 | 1006.2 |
| 20260506005546 | 22 | 0 | 0.0 | 6.4 | 0.00 | 0.00 | 0.00 | 69 | 1006.0 |
| 20260506005044 | 22 | 0 | 0.0 | 6.4 | 0.00 | 0.00 | 0.00 | 69 | 1005.9 |
| 20260506004549 | 22 | 337 | 1.6 | 14.5 | 0.00 | 0.00 | 0.00 | 69 | 1005.8 |
| 20260506004044 | 22 | 342 | 1.6 | 14.5 | 0.00 | 0.00 | 0.00 | 68 | 1005.5 |
| 20260506003549 | 22 | 38 | 3.2 | 14.5 | 0.00 | 0.00 | 0.00 | 68 | 1005.1 |
| 20260506003051 | 23 | 11 | 4.8 | 14.5 | 0.00 | 0.00 | 0.00 | 68 | 1005.3 |
| 20260506002544 | 23 | 11 | 1.6 | 11.3 | 0.00 | 0.00 | 0.00 | 68 | 1005.4 |
| 20260506002044 | 23 | 5 | 3.2 | 12.9 | 0.00 | 0.00 | 0.00 | 68 | 1005.1 |
| 20260506001554 | 23 | 333 | 3.2 | 12.9 | 0.00 | 0.00 | 0.00 | 67 | 1005.1 |
| 20260506001044 | 24 | 355 | 4.8 | 12.9 | 0.00 | 0.00 | 0.00 | 66 | 1005.2 |
| 20260506000548 | 25 | 31 | 3.2 | 9.7 | 0.00 | 0.00 | 0.00 | 66 | 1005.1 |
| 20260506000053 | 25 | 360 | 1.6 | 9.7 | 0.00 | 0.00 | 0.00 | 65 | 1005.0 |
| 20260505235548 | 25 | 17 | 1.6 | 9.7 | 0.00 | 0.00 | 0.00 | 65 | 1004.7 |
| 20260505235050 | 25 | 338 | 1.6 | 8.0 | 0.00 | 0.00 | 0.00 | 65 | 1004.9 |
| 20260505234552 | 26 | 351 | 1.6 | 6.4 | 0.00 | 0.00 | 0.00 | 64 | 1004.7 |
| 20260505234047 | 26 | 281 | 1.6 | 9.7 | 0.00 | 0.00 | 0.00 | 64 | 1004.6 |
| 20260505233547 | 26 | 325 | 1.6 | 11.3 | 0.00 | 0.00 | 0.00 | 64 | 1004.6 |
| 20260505233105 | 26 | 36 | 3.2 | 11.3 | 0.00 | 0.00 | 0.00 | 63 | 1004.5 |
| 20260505232550 | 26 | 344 | 1.6 | 11.3 | 0.00 | 0.00 | 0.00 | 63 | 1004.6 |
| 20260505232048 | 27 | 288 | 3.2 | 11.3 | 0.00 | 0.00 | 0.00 | 61 | 1004.9 |
| 20260505231551 | 27 | 329 | 1.6 | 11.3 | 0.00 | 0.00 | 0.00 | 60 | 1004.8 |
| 20260505231047 | 27 | 281 | 3.2 | 12.9 | 0.00 | 0.00 | 0.00 | 60 | 1004.5 |
| 20260505230544 | 27 | 0 | 3.2 | 12.9 | 0.00 | 0.00 | 0.00 | 60 | 1004.4 |
| 20260505230058 | 28 | 289 | 4.8 | 12.9 | 0.00 | 0.00 | 0.00 | 59 | 1004.5 |
| 20260505225546 | 28 | 300 | 3.2 | 12.9 | 0.00 | 0.00 | 0.00 | 59 | 1004.4 |
| 20260505225045 | 28 | 294 | 3.2 | 8.0 | 0.00 | 0.00 | 0.00 | 57 | 1004.2 |
| 20260505224554 | 29 | 0 | 1.6 | 12.9 | 0.00 | 0.00 | 0.00 | 57 | 1004.0 |
| 20260505224049 | 29 | 0 | 3.2 | 12.9 | 0.00 | 0.00 | 0.00 | 55 | 1004.0 |
| 20260505223544 | 29 | 0 | 3.2 | 12.9 | 0.00 | 0.00 | 0.00 | 54 | 1004.1 |
| 20260505223052 | 29 | 325 | 1.6 | 12.9 | 0.00 | 0.00 | 0.00 | 54 | 1004.3 |
| 20260505222544 | 29 | 329 | 3.2 | 8.0 | 0.00 | 0.00 | 0.00 | 53 | 1004.1 |
| 20260505222048 | 30 | 325 | 1.6 | 12.9 | 0.00 | 0.00 | 0.00 | 52 | 1003.9 |
| 20260505221555 | 30 | 299 | 1.6 | 12.9 | 0.00 | 0.00 | 0.00 | 52 | 1003.9 |
| 20260505221046 | 30 | 349 | 3.2 | 12.9 | 0.00 | 0.00 | 0.00 | 51 | 1003.8 |
| 20260505220544 | 31 | 15 | 3.2 | 16.1 | 0.00 | 0.00 | 0.00 | 50 | 1003.7 |
| 20260505220055 | 31 | 355 | 1.6 | 16.1 | 0.00 | 0.00 | 0.00 | 50 | 1003.6 |
| 20260505215547 | 32 | 287 | 3.2 | 12.9 | 0.00 | 0.00 | 0.00 | 48 | 1003.4 |
| 20260505215044 | 33 | 351 | 3.2 | 12.9 | 0.00 | 0.00 | 0.00 | 48 | 1003.6 |
| 20260505214604 | 33 | 292 | 1.6 | 11.3 | 0.00 | 0.00 | 0.00 | 45 | 1003.7 |
| 20260505214043 | 33 | 263 | 3.2 | 11.3 | 0.00 | 0.00 | 0.00 | 46 | 1003.7 |
| 20260505213543 | 33 | 236 | 1.6 | 12.9 | 0.00 | 0.00 | 0.00 | 44 | 1003.7 |
| 20260505213051 | 34 | 232 | 3.2 | 12.9 | 0.00 | 0.00 | 0.00 | 46 | 1003.5 |
| 20260505212548 | 34 | 307 | 3.2 | 12.9 | 0.00 | 0.00 | 0.00 | 47 | 1003.7 |
| 20260505212048 | 33 | 0 | 1.6 | 11.3 | 0.00 | 0.00 | 0.00 | 48 | 1003.7 |
| 20260505211549 | 33 | 281 | 1.6 | 11.3 | 0.00 | 0.00 | 0.00 | 48 | 1003.8 |
| 20260505211045 | 33 | 286 | 1.6 | 11.3 | 0.00 | 0.00 | 0.00 | 49 | 1004.0 |
| 20260505210547 | 33 | 246 | 1.6 | 6.4 | 0.00 | 0.00 | 0.00 | 50 | 1003.9 |
| 20260505210051 | 33 | 207 | 1.6 | 12.9 | 0.00 | 0.00 | 0.00 | 50 | 1004.0 |
| 20260505205547 | 33 | 281 | 3.2 | 12.9 | 0.00 | 0.00 | 0.00 | 50 | 1004.1 |
| 20260505205044 | 33 | 0 | 1.6 | 16.1 | 0.00 | 0.00 | 0.00 | 52 | 1004.0 |
| 20260505204618 | 33 | 282 | 4.8 | 16.1 | 0.00 | 0.00 | 0.00 | 51 | 1004.0 |
| 20260505204046 | 32 | 183 | 1.6 | 14.5 | 0.00 | 0.00 | 0.00 | 53 | 1004.3 |
| 20260505203547 | 32 | 0 | 3.2 | 14.5 | 0.00 | 0.00 | 0.00 | 53 | 1004.2 |
| 20260505203049 | 32 | 248 | 4.8 | 12.9 | 0.00 | 0.00 | 0.00 | 53 | 1004.3 |
| 20260505202550 | 32 | 245 | 1.6 | 14.5 | 0.00 | 0.00 | 0.00 | 53 | 1004.3 |
| 20260505202047 | 32 | 211 | 1.6 | 14.5 | 0.00 | 0.00 | 0.00 | 56 | 1004.4 |
| 20260505201557 | 32 | 269 | 3.2 | 14.5 | 0.00 | 0.00 | 0.00 | 54 | 1004.5 |
| 20260505201044 | 32 | 238 | 1.6 | 14.5 | 0.00 | 0.00 | 0.00 | 56 | 1004.4 |
| 20260505200544 | 32 | 248 | 4.8 | 14.5 | 0.00 | 0.00 | 0.00 | 55 | 1004.5 |
| 20260505200054 | 32 | 317 | 3.2 | 17.7 | 0.00 | 0.00 | 0.00 | 56 | 1004.6 |
| 20260505195546 | 32 | 0 | 3.2 | 17.7 | 0.00 | 0.00 | 0.00 | 57 | 1004.5 |
| 20260505195048 | 31 | 248 | 3.2 | 19.3 | 0.00 | 0.00 | 0.00 | 56 | 1004.5 |
| 20260505194552 | 31 | 306 | 6.4 | 19.3 | 0.00 | 0.00 | 0.00 | 57 | 1004.4 |
| 20260505194044 | 31 | 243 | 4.8 | 19.3 | 0.00 | 0.00 | 0.00 | 57 | 1004.5 |
| 20260505193548 | 31 | 244 | 4.8 | 19.3 | 0.00 | 0.00 | 0.00 | 57 | 1004.6 |
| 20260505193053 | 31 | 213 | 4.8 | 14.5 | 0.00 | 0.00 | 0.00 | 58 | 1004.6 |
| 20260505192547 | 31 | 296 | 3.2 | 17.7 | 0.00 | 0.00 | 0.00 | 58 | 1004.7 |
| 20260505192047 | 31 | 221 | 4.8 | 20.9 | 0.00 | 0.00 | 0.00 | 59 | 1004.5 |
| 20260505191603 | 30 | 240 | 6.4 | 20.9 | 0.00 | 0.00 | 0.00 | 59 | 1004.6 |
| 20260505191049 | 30 | 231 | 6.4 | 17.7 | 0.00 | 0.00 | 0.00 | 60 | 1004.7 |
| 20260505190550 | 30 | 65 | 1.6 | 14.5 | 0.00 | 0.00 | 0.00 | 62 | 1004.7 |
| 20260505190058 | 30 | 194 | 4.8 | 14.5 | 0.00 | 0.00 | 0.00 | 63 | 1004.6 |
| 20260505185547 | 30 | 273 | 4.8 | 16.1 | 0.00 | 0.00 | 0.00 | 64 | 1004.7 |
| 20260505185047 | 30 | 277 | 1.6 | 17.7 | 0.00 | 0.00 | 0.00 | 63 | 1004.7 |
| 20260505184551 | 29 | 229 | 3.2 | 17.7 | 0.00 | 0.00 | 0.00 | 63 | 1004.8 |
| 20260505184044 | 29 | 168 | 3.2 | 12.9 | 0.00 | 0.00 | 0.00 | 64 | 1004.9 |
| 20260505183544 | 29 | 240 | 1.6 | 12.9 | 0.00 | 0.00 | 0.00 | 64 | 1004.9 |
| 20260505183124 | 29 | 281 | 3.2 | 12.9 | 0.00 | 0.00 | 0.00 | 64 | 1004.8 |
| 20260505182544 | 29 | 240 | 3.2 | 12.9 | 0.00 | 0.00 | 0.00 | 65 | 1005.0 |
| 20260505182048 | 29 | 243 | 3.2 | 12.9 | 0.00 | 0.00 | 0.00 | 64 | 1005.0 |
| 20260505181553 | 28 | 161 | 1.6 | 14.5 | 0.00 | 0.00 | 0.00 | 66 | 1004.8 |
| 20260505181044 | 28 | 239 | 1.6 | 14.5 | 0.00 | 0.00 | 0.00 | 66 | 1005.0 |
| 20260505180543 | 28 | 239 | 4.8 | 16.1 | 0.00 | 0.00 | 0.00 | 67 | 1004.9 |
| 20260505180049 | 28 | 235 | 3.2 | 20.9 | 0.00 | 0.00 | 0.00 | 67 | 1004.9 |
| 20260505175547 | 28 | 254 | 4.8 | 20.9 | 0.00 | 0.00 | 0.00 | 66 | 1005.0 |
| 20260505175048 | 28 | 268 | 3.2 | 17.7 | 0.00 | 0.00 | 0.00 | 66 | 1004.9 |
| 20260505174552 | 28 | 324 | 3.2 | 17.7 | 0.00 | 0.00 | 0.00 | 66 | 1004.9 |
| 20260505174048 | 28 | 159 | 3.2 | 16.1 | 0.00 | 0.00 | 0.00 | 66 | 1004.8 |
| 20260505173548 | 28 | 234 | 4.8 | 19.3 | 0.00 | 0.00 | 0.00 | 66 | 1004.8 |
| 20260505173059 | 28 | 181 | 3.2 | 19.3 | 0.00 | 0.00 | 0.00 | 67 | 1004.8 |
| 20260505172550 | 28 | 191 | 3.2 | 19.3 | 0.00 | 0.00 | 0.00 | 67 | 1005.0 |
| 20260505172047 | 28 | 238 | 1.6 | 19.3 | 0.00 | 0.00 | 0.00 | 67 | 1005.0 |
| 20260505171604 | 28 | 241 | 3.2 | 12.9 | 0.00 | 0.00 | 0.00 | 66 | 1005.0 |
| 20260505171044 | 28 | 255 | 3.2 | 17.7 | 0.00 | 0.00 | 0.00 | 68 | 1004.9 |
| 20260505170543 | 27 | 203 | 4.8 | 17.7 | 0.00 | 0.00 | 0.00 | 68 | 1005.0 |
| 20260505170058 | 27 | 259 | 3.2 | 17.7 | 0.00 | 0.00 | 0.00 | 69 | 1005.0 |
| 20260505165544 | 27 | 252 | 4.8 | 20.9 | 0.00 | 0.00 | 0.00 | 69 | 1005.0 |
| 20260505165044 | 27 | 289 | 3.2 | 24.1 | 0.00 | 0.00 | 0.00 | 70 | 1005.0 |
| 20260505164552 | 26 | 207 | 9.7 | 24.1 | 0.00 | 0.00 | 0.00 | 70 | 1004.9 |
| 20260505164044 | 26 | 222 | 6.4 | 24.1 | 0.00 | 0.00 | 0.00 | 71 | 1005.0 |
| 20260505163547 | 26 | 261 | 6.4 | 22.5 | 0.00 | 0.00 | 0.00 | 70 | 1004.9 |
| 20260505163102 | 26 | 261 | 6.4 | 22.5 | 0.00 | 0.00 | 0.00 | 71 | 1004.8 |
| 20260505162544 | 26 | 248 | 4.8 | 27.4 | 0.00 | 0.00 | 0.00 | 71 | 1004.9 |
| 20260505162044 | 26 | 246 | 6.4 | 27.4 | 0.00 | 0.00 | 0.00 | 71 | 1004.9 |
| 20260505161629 | 26 | 232 | 4.8 | 17.7 | 0.00 | 0.00 | 0.00 | 71 | 1004.8 |